Benton, AR (72158)

10:21 PM CST on December 27, 2014 (GMT -0600)
Downtown / First Baptist | Change Station
CLOSE
Current Station
Personal Weather Station
Location: Benton, AR
Elevation: 433 ft
Nearby Weather Stations

Elev 433 ft 34.56 °N, 92.59 °W | Updated 2 seconds ago

Overcast
Overcast
43.7 °F
Feels Like 41 °F
N
4.9
Wind Variable Wind from NNE
Gusts 11.0 mph

Today
High -- | Low -- °F
--% Chance of Precip.
Yesterday
High -- | Low -- °F
Precip. -- in
7:15 AM 5:07 PM
Waxing Crescent, 43% visible
Pressure 30.21 in
Visibility 10.0 miles
Clouds Overcast 1100 ft
Windchill 41 °F
Dew Point 42 °F
Humidity 95%
Rainfall 0.81 in
Snow Depth Not available.
UV 0.0 out of 12
Pollen .70 out of 12
Air Quality Not available.
Flu Activity Not available.
METAR KLIT 280353Z 33009G15KT 10SM OVC011 06/03 A3020 RMK AO2 SLP230 CIG RGD T00610033 $

More Conditions Fewer Conditions

Pressure 30.21 in
Visibility 10.0 miles
Clouds Overcast 1100 ft
Windchill 41 °F
Dew Point 42 °F
Humidity 95%
Rainfall 0.81 in
Snow Depth Not available.
UV 0.0 out of 12
Pollen .70 out of 12
Air Quality Not available.
Flu Activity Not available.
METAR KLIT 280353Z 33009G15KT 10SM OVC011 06/03 A3020 RMK AO2 SLP230 CIG RGD T00610033 $

More Conditions Fewer Conditions

10-Day Weather Forecast

Almanac

Astronomy

Dec. 27, 2014 Rise Set
Actual Time
Civil Twilight
Nautical Twilight
Astronomical Twilight
Moon
Length of Visible Light
Length of Day
Tomorrow will be .
, % of the Moon is Illuminated

Today's Extremes

State Highs State Lows

Community

WunderPhotos

Upload Photos

1,781,189 photos uploaded!

WunderBlogs® & News

Nearby

Air Quality

  Air Quality AQ Index Pollutant
Not available.

Snow Depth

Station Depth Elevation

Earthquake Activity

City Distance Mag. Time & Date
Minimum magnitude displayed is 2.5.

Coastal Water Temperatures

Place Temperature

Nearby Weather Stations